Time;durP1;ratioP1;P1;durP2;ratioP2;P2;SDS_P1;SDS_P2;PMS_P1;PMS_P2;Temp;Humidity;BMP_temperature;BMP_pressure;BME280_temperature;BME280_humidity;BME280_pressure;Samples;Min_cycle;Max_cycle;Signal;HPM_P1;HPM_P2
2023/08/10 00:03:21;;;;;;;8.10;3.35;;;;;;;;;;10542819;27;20127;-76
2023/08/10 00:08:33;;;;;;;6.85;3.33;;;;;;;;;;10561457;27;20047;-76
2023/08/10 00:13:37;;;;;;;5.63;3.25;;;;;;;;;;10563096;27;20500;-76
2023/08/10 00:18:42;;;;;;;6.55;3.25;;;;;;;;;;10537803;27;20507;-76
2023/08/10 00:24:00;;;;;;;7.75;3.80;;;;;;;;;;10557054;27;20083;-76
2023/08/10 00:29:04;;;;;;;6.28;3.72;;;;;;;;;;10534905;27;20050;-76
2023/08/10 00:34:24;;;;;;;6.97;3.45;;;;;;;;;;10562337;27;20535;-77
2023/08/10 00:39:48;;;;;;;7.32;4.05;;;;;;;;;;10536079;27;20233;-76
2023/08/10 00:45:01;;;;;;;7.78;4.32;;;;;;;;;;10538596;27;20043;-76
2023/08/10 00:50:09;;;;;;;7.60;4.07;;;;;;;;;;10558847;28;20051;-76
2023/08/10 00:55:15;;;;;;;9.75;5.07;;;;;;;;;;10556151;28;20031;-76
2023/08/10 01:00:24;;;;;;;7.68;4.32;;;;;;;;;;10546611;28;20036;-76
2023/08/10 01:05:37;;;;;;;9.40;4.70;;;;;;;;;;10549497;28;20432;-76
2023/08/10 01:11:06;;;;;;;8.02;4.50;;;;;;;;;;10540989;28;20039;-76
2023/08/10 01:16:19;;;;;;;11.13;5.07;;;;;;;;;;10561579;28;20039;-77
2023/08/10 01:21:28;;;;;;;11.98;5.50;;;;;;;;;;10548810;28;20117;-76
2023/08/10 01:32:13;;;;;;;10.52;5.28;;;;;;;;;;10539443;28;20052;-76
2023/08/10 01:37:19;;;;;;;11.35;5.85;;;;;;;;;;10547290;27;20042;-76
2023/08/10 01:42:27;;;;;;;10.68;5.13;;;;;;;;;;10534189;27;20059;-76
2023/08/10 01:47:33;;;;;;;13.57;6.13;;;;;;;;;;10534836;27;20036;-76
2023/08/10 01:52:46;;;;;;;17.35;6.43;;;;;;;;;;10560277;27;20042;-76
2023/08/10 01:58:02;;;;;;;18.90;7.70;;;;;;;;;;10567324;27;20116;-76
2023/08/10 02:03:21;;;;;;;18.75;7.90;;;;;;;;;;10579673;27;20122;-77
2023/08/10 02:08:29;;;;;;;17.67;7.68;;;;;;;;;;10558610;27;20043;-76
2023/08/10 02:13:37;;;;;;;20.27;8.05;;;;;;;;;;10571120;27;20043;-77
2023/08/10 02:18:41;;;;;;;16.52;7.38;;;;;;;;;;10582736;27;20056;-76
2023/08/10 02:23:48;;;;;;;17.52;7.38;;;;;;;;;;10559889;27;20130;-76
2023/08/10 02:29:00;;;;;;;18.15;7.55;;;;;;;;;;10562197;27;20043;-76
2023/08/10 02:34:04;;;;;;;18.75;8.15;;;;;;;;;;10566253;27;20438;-76
2023/08/10 02:39:12;;;;;;;19.67;8.38;;;;;;;;;;10568680;27;20137;-76
2023/08/10 02:44:22;;;;;;;16.73;7.57;;;;;;;;;;10571321;27;20028;-76
2023/08/10 02:49:29;;;;;;;18.90;8.32;;;;;;;;;;10533672;27;20062;-76
2023/08/10 02:54:37;;;;;;;17.00;7.63;;;;;;;;;;10568781;27;20050;-76
2023/08/10 02:59:49;;;;;;;17.98;7.50;;;;;;;;;;10560162;27;20039;-75
2023/08/10 03:04:56;;;;;;;18.08;7.93;;;;;;;;;;10557315;27;20080;-75
2023/08/10 03:16:12;;;;;;;18.70;8.18;;;;;;;;;;10554932;27;20052;-76
2023/08/10 03:21:20;;;;;;;17.30;7.45;;;;;;;;;;10534922;27;20050;-76
2023/08/10 03:26:29;;;;;;;16.60;7.78;;;;;;;;;;10552293;27;20052;-76
2023/08/10 03:31:36;;;;;;;15.18;6.97;;;;;;;;;;10538974;27;20122;-75
2023/08/10 03:36:41;;;;;;;17.77;7.50;;;;;;;;;;10556934;27;20487;-75
2023/08/10 03:41:48;;;;;;;20.23;8.75;;;;;;;;;;10557812;27;20448;-76
2023/08/10 03:46:57;;;;;;;15.60;7.57;;;;;;;;;;10543906;27;20036;-76
2023/08/10 03:52:07;;;;;;;15.60;7.25;;;;;;;;;;10544834;27;20494;-76
2023/08/10 03:57:14;;;;;;;15.05;7.03;;;;;;;;;;10545656;27;20059;-76
2023/08/10 04:02:23;;;;;;;14.52;7.13;;;;;;;;;;10559885;27;20582;-76
2023/08/10 04:07:30;;;;;;;19.25;8.20;;;;;;;;;;10559146;27;20135;-76
2023/08/10 04:12:37;;;;;;;16.63;7.53;;;;;;;;;;10553300;27;20071;-77
2023/08/10 04:17:52;;;;;;;17.83;8.65;;;;;;;;;;10550547;27;20135;-76
2023/08/10 04:23:03;;;;;;;15.20;7.43;;;;;;;;;;10558466;27;20051;-76
2023/08/10 04:28:09;;;;;;;18.05;8.18;;;;;;;;;;10558533;27;20051;-76
2023/08/10 04:33:15;;;;;;;16.00;8.05;;;;;;;;;;10572076;27;20105;-76
2023/08/10 04:38:22;;;;;;;14.05;6.28;;;;;;;;;;10556508;27;20063;-76
2023/08/10 04:43:25;;;;;;;16.02;6.97;;;;;;;;;;10559026;27;20044;-77
2023/08/10 04:53:56;;;;;;;15.10;7.07;;;;;;;;;;10557611;28;20066;-76
2023/08/10 04:59:00;;;;;;;15.13;7.55;;;;;;;;;;10542508;28;20049;-77
2023/08/10 05:04:15;;;;;;;12.05;6.53;;;;;;;;;;10563051;28;22685;-76
2023/08/10 05:09:19;;;;;;;12.88;5.88;;;;;;;;;;10550824;28;20426;-77
2023/08/10 05:14:25;;;;;;;12.23;5.88;;;;;;;;;;10549943;27;20047;-77
2023/08/10 05:19:37;;;;;;;13.13;6.45;;;;;;;;;;10565909;27;20044;-76
2023/08/10 05:24:48;;;;;;;12.25;6.40;;;;;;;;;;10570051;27;20779;-77
2023/08/10 05:29:58;;;;;;;11.18;6.05;;;;;;;;;;10577143;27;20055;-75
2023/08/10 05:35:06;;;;;;;10.73;5.43;;;;;;;;;;10551698;27;20093;-76
2023/08/10 05:40:12;;;;;;;10.05;5.13;;;;;;;;;;10567108;27;20040;-76
2023/08/10 05:45:19;;;;;;;8.85;4.70;;;;;;;;;;10559953;27;20848;-76
2023/08/10 05:50:42;;;;;;;7.75;3.95;;;;;;;;;;10566880;27;20506;-76
2023/08/10 05:55:52;;;;;;;8.77;4.25;;;;;;;;;;10566464;27;20067;-76
2023/08/10 06:00:59;;;;;;;8.38;4.38;;;;;;;;;;10567029;27;20123;-76
2023/08/10 06:06:06;;;;;;;11.77;4.95;;;;;;;;;;10581573;27;20048;-76
2023/08/10 06:11:16;;;;;;;8.65;4.13;;;;;;;;;;10568920;27;20122;-77
2023/08/10 06:16:31;;;;;;;7.45;4.10;;;;;;;;;;10567568;27;20503;-76
2023/08/10 06:21:39;;;;;;;7.40;4.45;;;;;;;;;;10525362;27;20098;-76
2023/08/10 06:26:49;;;;;;;7.25;3.90;;;;;;;;;;10551868;27;20485;-77
2023/08/10 06:31:56;;;;;;;7.88;3.33;;;;;;;;;;10573362;27;20050;-76
2023/08/10 06:37:02;;;;;;;5.93;3.03;;;;;;;;;;10547297;27;20058;-77
2023/08/10 06:42:17;;;;;;;4.03;2.00;;;;;;;;;;10561108;27;20069;-77
2023/08/10 06:47:23;;;;;;;3.38;2.20;;;;;;;;;;10539330;27;20158;-76
2023/08/10 06:52:33;;;;;;;2.92;2.05;;;;;;;;;;10548299;27;20046;-76
2023/08/10 06:57:44;;;;;;;5.28;2.47;;;;;;;;;;10555122;27;20044;-75
2023/08/10 07:02:55;;;;;;;4.40;2.35;;;;;;;;;;10548500;27;20204;-76
2023/08/10 07:07:59;;;;;;;5.10;2.10;;;;;;;;;;10581765;27;20136;-77
2023/08/10 07:13:07;;;;;;;5.43;2.08;;;;;;;;;;10545518;27;20043;-77
2023/08/10 07:18:12;;;;;;;4.35;2.40;;;;;;;;;;10534855;27;20585;-76
2023/08/10 07:23:22;;;;;;;2.88;1.90;;;;;;;;;;10553167;27;20055;-76
2023/08/10 07:28:37;;;;;;;4.97;2.53;;;;;;;;;;10552985;27;20040;-77
2023/08/10 07:33:43;;;;;;;12.60;2.50;;;;;;;;;;10561203;27;20306;-76
2023/08/10 07:38:48;;;;;;;3.30;1.90;;;;;;;;;;10556506;27;20478;-77
2023/08/10 07:43:58;;;;;;;2.63;1.55;;;;;;;;;;10554526;27;20108;-77
2023/08/10 07:49:04;;;;;;;2.17;1.70;;;;;;;;;;10562427;27;20059;-77
2023/08/10 07:54:18;;;;;;;2.30;1.60;;;;;;;;;;10548181;27;20128;-76
2023/08/10 07:59:24;;;;;;;6.53;2.83;;;;;;;;;;10542811;27;20122;-77
2023/08/10 08:04:31;;;;;;;5.00;2.97;;;;;;;;;;10548195;27;20063;-77
2023/08/10 08:09:46;;;;;;;3.08;1.92;;;;;;;;;;10564113;27;20044;-77
2023/08/10 08:14:55;;;;;;;2.58;2.00;;;;;;;;;;10558423;27;20042;-78
2023/08/10 08:20:06;;;;;;;2.88;1.80;;;;;;;;;;10556247;27;20078;-79
2023/08/10 08:25:15;;;;;;;2.08;1.80;;;;;;;;;;10534714;27;20054;-79
2023/08/10 08:30:25;;;;;;;2.20;1.90;;;;;;;;;;10533118;27;20039;-77
2023/08/10 08:35:32;;;;;;;3.22;1.90;;;;;;;;;;10552849;27;20043;-79
2023/08/10 08:40:45;;;;;;;3.75;1.90;;;;;;;;;;10556546;27;20040;-77
2023/08/10 08:45:57;;;;;;;2.45;2.20;;;;;;;;;;10566259;27;20368;-76
2023/08/10 08:51:06;;;;;;;2.45;1.98;;;;;;;;;;10561068;28;20097;-75
2023/08/10 08:56:14;;;;;;;2.40;2.00;;;;;;;;;;10583580;27;20043;-78
2023/08/10 09:01:34;;;;;;;3.00;1.60;;;;;;;;;;10561695;28;20047;-78
2023/08/10 09:06:43;;;;;;;2.85;2.30;;;;;;;;;;10563570;28;20044;-79
2023/08/10 09:11:47;;;;;;;3.15;2.20;;;;;;;;;;10555129;28;20150;-79
2023/08/10 09:16:55;;;;;;;3.53;2.35;;;;;;;;;;10550558;28;20065;-79
2023/08/10 09:21:59;;;;;;;2.28;2.00;;;;;;;;;;10530899;28;20137;-77
2023/08/10 09:27:04;;;;;;;2.30;2.08;;;;;;;;;;10555932;28;20109;-78
2023/08/10 09:37:36;;;;;;;2.42;1.98;;;;;;;;;;10553080;28;20036;-77
2023/08/10 09:42:43;;;;;;;2.63;2.10;;;;;;;;;;10552612;28;20060;-80
2023/08/10 09:47:54;;;;;;;2.00;1.90;;;;;;;;;;10544714;28;20052;-79
2023/08/10 09:53:02;;;;;;;2.20;2.00;;;;;;;;;;10552719;28;20048;-82
2023/08/10 09:58:10;;;;;;;3.10;2.05;;;;;;;;;;10567892;27;20822;-81
2023/08/10 10:03:19;;;;;;;2.97;2.00;;;;;;;;;;10562065;27;20427;-82
2023/08/10 10:08:29;;;;;;;2.10;1.90;;;;;;;;;;10543979;27;20148;-81
2023/08/10 10:13:41;;;;;;;1.90;1.80;;;;;;;;;;10542911;27;20047;-82
2023/08/10 10:18:49;;;;;;;3.80;1.92;;;;;;;;;;10553060;27;20044;-80
2023/08/10 10:24:00;;;;;;;2.05;1.80;;;;;;;;;;10557755;27;20134;-80
2023/08/10 10:29:18;;;;;;;2.13;1.58;;;;;;;;;;10571962;27;20505;-80
2023/08/10 10:34:32;;;;;;;2.88;1.70;;;;;;;;;;10545339;27;20078;-80
2023/08/10 10:39:52;;;;;;;2.30;2.10;;;;;;;;;;10542563;27;20051;-80
2023/08/10 10:45:15;;;;;;;2.03;1.80;;;;;;;;;;10557091;27;20047;-80
2023/08/10 10:50:31;;;;;;;2.33;1.85;;;;;;;;;;10554043;27;20055;-80
2023/08/10 10:55:39;;;;;;;2.55;2.10;;;;;;;;;;10555671;27;20048;-80
2023/08/10 11:00:47;;;;;;;2.65;2.30;;;;;;;;;;10554755;27;20558;-79
2023/08/10 11:05:58;;;;;;;2.30;2.05;;;;;;;;;;10555447;27;20056;-80
2023/08/10 11:11:02;;;;;;;;;;;;;;;;;;10557983;27;20032;-79
2023/08/10 11:16:09;;;;;;;2.50;2.30;;;;;;;;;;10524528;27;19920;-79
2023/08/10 11:21:22;;;;;;;2.22;1.95;;;;;;;;;;10555037;27;20438;-79
2023/08/10 11:26:27;;;;;;;2.85;2.30;;;;;;;;;;10570120;27;20059;-80
2023/08/10 11:31:38;;;;;;;2.28;1.70;;;;;;;;;;10558318;27;20043;-80
2023/08/10 11:36:54;;;;;;;5.30;2.20;;;;;;;;;;10555669;27;20401;-80
2023/08/10 11:42:09;;;;;;;2.47;2.10;;;;;;;;;;10548158;27;20529;-80
2023/08/10 11:47:17;;;;;;;2.50;2.05;;;;;;;;;;10539891;27;20040;-80
2023/08/10 11:52:25;;;;;;;2.90;2.20;;;;;;;;;;10557697;27;20097;-82
2023/08/10 11:57:37;;;;;;;3.80;2.22;;;;;;;;;;10549215;27;20047;-78
2023/08/10 12:02:56;;;;;;;2.40;2.20;;;;;;;;;;10555070;27;20035;-80
2023/08/10 12:08:06;;;;;;;2.90;2.10;;;;;;;;;;10548878;27;20457;-83
2023/08/10 12:13:12;;;;;;;1.83;1.73;;;;;;;;;;10560837;27;20124;-80
2023/08/10 12:18:19;;;;;;;3.40;2.10;;;;;;;;;;10524992;27;20289;-78
2023/08/10 12:23:31;;;;;;;2.30;2.10;;;;;;;;;;10539491;27;20048;-78
2023/08/10 12:28:38;;;;;;;3.35;2.17;;;;;;;;;;10545102;27;20039;-80
2023/08/10 12:33:44;;;;;;;3.88;2.08;;;;;;;;;;10550171;27;20519;-80
2023/08/10 12:38:53;;;;;;;2.25;2.00;;;;;;;;;;10558857;27;20047;-81
2023/08/10 12:44:02;;;;;;;2.55;1.92;;;;;;;;;;10549068;27;20048;-82
2023/08/10 12:49:16;;;;;;;4.32;2.08;;;;;;;;;;10550094;28;20428;-82
2023/08/10 12:54:31;;;;;;;2.80;2.13;;;;;;;;;;10565619;28;20159;-82
2023/08/10 12:59:39;;;;;;;2.10;1.90;;;;;;;;;;10602370;28;20050;-81
2023/08/10 13:04:46;;;;;;;4.82;1.80;;;;;;;;;;10586446;27;20091;-82
2023/08/10 13:10:07;;;;;;;2.63;1.90;;;;;;;;;;10562431;28;20073;-82
2023/08/10 13:15:15;;;;;;;3.60;1.90;;;;;;;;;;10574060;28;20047;-82
2023/08/10 13:20:26;;;;;;;2.80;1.95;;;;;;;;;;10562895;28;20047;-81
2023/08/10 13:25:35;;;;;;;4.13;2.05;;;;;;;;;;10572519;28;20055;-81
2023/08/10 13:30:41;;;;;;;4.00;1.90;;;;;;;;;;10552552;28;20043;-83
2023/08/10 13:35:47;;;;;;;3.72;2.03;;;;;;;;;;10565685;27;20452;-82
2023/08/10 13:40:55;;;;;;;3.30;1.83;;;;;;;;;;10564141;27;20036;-81
2023/08/10 13:45:59;;;;;;;4.43;2.22;;;;;;;;;;10551731;27;20101;-81
2023/08/10 13:51:09;;;;;;;2.35;1.60;;;;;;;;;;10543731;27;20042;-81
2023/08/10 13:56:30;;;;;;;4.13;1.40;;;;;;;;;;10579251;27;20058;-84
2023/08/10 14:01:36;;;;;;;5.97;3.03;;;;;;;;;;10559401;27;20040;-81
2023/08/10 14:06:44;;;;;;;2.03;1.60;;;;;;;;;;10549400;27;20044;-81
2023/08/10 14:11:50;;;;;;;3.53;1.60;;;;;;;;;;10575048;27;20094;-81
2023/08/10 14:16:59;;;;;;;4.55;1.60;;;;;;;;;;10544321;27;20129;-81
2023/08/10 14:22:08;;;;;;;3.33;2.03;;;;;;;;;;10560012;27;20056;-82
2023/08/10 14:27:19;;;;;;;2.63;1.67;;;;;;;;;;10550437;27;20437;-81
2023/08/10 14:32:28;;;;;;;3.83;1.77;;;;;;;;;;10540186;27;20055;-82
2023/08/10 14:37:34;;;;;;;1.83;1.60;;;;;;;;;;10555900;27;20558;-81
2023/08/10 14:42:45;;;;;;;2.88;1.48;;;;;;;;;;10549762;27;20043;-80
2023/08/10 14:48:01;;;;;;;2.78;1.65;;;;;;;;;;10539765;27;20040;-81
2023/08/10 14:53:11;;;;;;;2.63;1.60;;;;;;;;;;10546101;27;20051;-82
2023/08/10 14:58:21;;;;;;;2.38;1.30;;;;;;;;;;10539800;27;20051;-82
2023/08/10 15:03:27;;;;;;;3.80;1.90;;;;;;;;;;10542109;27;20558;-82
2023/08/10 15:08:30;;;;;;;2.85;1.35;;;;;;;;;;10546939;27;20050;-82
2023/08/10 15:13:40;;;;;;;1.98;1.30;;;;;;;;;;10553904;27;20070;-81
2023/08/10 15:18:46;;;;;;;2.83;1.60;;;;;;;;;;10552777;27;20064;-82
2023/08/10 15:23:51;;;;;;;3.85;1.48;;;;;;;;;;10557788;27;20074;-83
2023/08/10 15:29:06;;;;;;;2.97;1.60;;;;;;;;;;10537337;27;20043;-82
2023/08/10 15:34:19;;;;;;;2.47;1.45;;;;;;;;;;10553018;27;20490;-76
2023/08/10 15:39:50;;;;;;;3.78;1.58;;;;;;;;;;10538317;28;20509;-78
2023/08/10 15:45:07;;;;;;;2.75;1.42;;;;;;;;;;10552818;27;20573;-77
2023/08/10 15:50:14;;;;;;;3.75;1.38;;;;;;;;;;10553358;27;20473;-76
2023/08/10 15:55:23;;;;;;;3.30;1.83;;;;;;;;;;10559449;27;20147;-76
2023/08/10 16:00:36;;;;;;;3.15;1.88;;;;;;;;;;10571355;27;20138;-76
2023/08/10 16:05:46;;;;;;;3.33;2.22;;;;;;;;;;10557963;27;20046;-77
2023/08/10 16:10:54;;;;;;;2.53;1.73;;;;;;;;;;10556355;27;20497;-77
2023/08/10 16:16:07;;;;;;;4.45;1.75;;;;;;;;;;10555939;27;20412;-77
2023/08/10 16:21:12;;;;;;;2.58;1.55;;;;;;;;;;10552112;27;20547;-77
2023/08/10 16:26:21;;;;;;;3.03;1.70;;;;;;;;;;10543822;27;20051;-77
2023/08/10 16:42:16;;;;;;;3.10;1.77;;;;;;;;;;10572382;27;20098;-77
2023/08/10 16:47:33;;;;;;;6.38;1.67;;;;;;;;;;10555568;28;20075;-77
2023/08/10 16:52:40;;;;;;;3.50;1.60;;;;;;;;;;10565111;27;20171;-77
2023/08/10 16:57:48;;;;;;;5.07;1.60;;;;;;;;;;10569056;27;20125;-77
2023/08/10 17:02:59;;;;;;;6.68;1.98;;;;;;;;;;10570242;28;20506;-77
2023/08/10 17:08:08;;;;;;;2.75;1.70;;;;;;;;;;10544045;27;20508;-77
2023/08/10 17:13:11;;;;;;;5.88;2.10;;;;;;;;;;10565576;27;20044;-77
2023/08/10 17:18:28;;;;;;;4.68;1.95;;;;;;;;;;10548802;27;20040;-77
2023/08/10 17:23:39;;;;;;;4.43;2.00;;;;;;;;;;10569970;27;20058;-77
2023/08/10 17:28:47;;;;;;;3.33;1.83;;;;;;;;;;10570363;27;20651;-77
2023/08/10 17:33:55;;;;;;;2.83;1.80;;;;;;;;;;10565186;27;20038;-77
2023/08/10 17:39:03;;;;;;;8.10;3.55;;;;;;;;;;10569780;27;20070;-77
2023/08/10 17:44:09;;;;;;;5.13;2.47;;;;;;;;;;10585795;27;20047;-77
2023/08/10 17:49:18;;;;;;;3.47;1.83;;;;;;;;;;10571006;27;20051;-77
2023/08/10 17:54:28;;;;;;;4.03;2.20;;;;;;;;;;10545948;27;20140;-77
2023/08/10 17:59:33;;;;;;;3.55;1.80;;;;;;;;;;10562612;27;20052;-77
2023/08/10 18:04:47;;;;;;;5.38;2.15;;;;;;;;;;10564906;27;20615;-78
2023/08/10 18:10:01;;;;;;;2.95;1.60;;;;;;;;;;10563656;27;20044;-77
2023/08/10 18:15:12;;;;;;;4.55;1.70;;;;;;;;;;10558753;27;20146;-77
2023/08/10 18:20:31;;;;;;;6.60;1.60;;;;;;;;;;10559964;27;20055;-78
2023/08/10 18:25:36;;;;;;;2.40;1.40;;;;;;;;;;10543579;27;20147;-77
2023/08/10 18:30:44;;;;;;;3.33;1.67;;;;;;;;;;10564452;27;20028;-78
2023/08/10 18:35:51;;;;;;;4.00;1.70;;;;;;;;;;10559963;27;20040;-78
2023/08/10 18:41:06;;;;;;;2.92;1.52;;;;;;;;;;10564689;27;20031;-77
2023/08/10 18:46:19;;;;;;;3.42;1.92;;;;;;;;;;10567081;27;20132;-77
2023/08/10 18:51:33;;;;;;;4.75;2.28;;;;;;;;;;10556092;27;20048;-77
2023/08/10 18:56:42;;;;;;;4.15;2.10;;;;;;;;;;10563259;27;20036;-75
2023/08/10 19:01:50;;;;;;;5.05;1.90;;;;;;;;;;10543716;27;20047;-76
2023/08/10 19:07:09;;;;;;;3.22;1.80;;;;;;;;;;10563379;27;20062;-76
2023/08/10 19:12:12;;;;;;;3.20;2.00;;;;;;;;;;10528732;27;20039;-76
2023/08/10 19:17:18;;;;;;;5.55;2.00;;;;;;;;;;10535775;27;20534;-76
2023/08/10 19:22:38;;;;;;;4.13;2.10;;;;;;;;;;10567401;27;20068;-76
2023/08/10 19:27:52;;;;;;;6.07;2.17;;;;;;;;;;10561982;27;20110;-75
2023/08/10 19:33:04;;;;;;;4.07;2.08;;;;;;;;;;10579627;27;20039;-76
2023/08/10 19:38:11;;;;;;;3.75;2.05;;;;;;;;;;10562797;27;20135;-76
2023/08/10 19:43:21;;;;;;;4.10;2.28;;;;;;;;;;10552905;27;20032;-77
2023/08/10 19:48:28;;;;;;;6.32;2.70;;;;;;;;;;10543110;27;20149;-76
2023/08/10 19:53:33;;;;;;;5.60;2.40;;;;;;;;;;10557083;27;20077;-77
2023/08/10 19:58:42;;;;;;;5.15;2.47;;;;;;;;;;10565247;27;20481;-77
2023/08/10 20:03:48;;;;;;;3.95;2.17;;;;;;;;;;10558096;27;20062;-77
2023/08/10 20:08:53;;;;;;;7.10;2.95;;;;;;;;;;10547474;27;20047;-76
2023/08/10 20:14:01;;;;;;;7.22;2.80;;;;;;;;;;10565223;27;20510;-76
2023/08/10 20:19:08;;;;;;;5.88;2.35;;;;;;;;;;10569546;27;20048;-76
2023/08/10 20:24:38;;;;;;;6.03;2.80;;;;;;;;;;10522858;27;20039;-77
2023/08/10 20:30:04;;;;;;;6.18;2.80;;;;;;;;;;10549606;27;20515;-77
2023/08/10 20:35:14;;;;;;;4.53;2.45;;;;;;;;;;10556520;28;20046;-77
2023/08/10 20:40:22;;;;;;;5.22;2.30;;;;;;;;;;10543414;27;20066;-76
2023/08/10 20:45:29;;;;;;;6.00;2.60;;;;;;;;;;10543577;27;20047;-77
2023/08/10 20:50:39;;;;;;;8.65;4.13;;;;;;;;;;10553156;27;20574;-76
2023/08/10 20:55:47;;;;;;;6.33;2.40;;;;;;;;;;10565767;27;20063;-77
2023/08/10 21:00:59;;;;;;;5.68;2.80;;;;;;;;;;10552337;28;20457;-76
2023/08/10 21:06:09;;;;;;;5.13;2.42;;;;;;;;;;10568413;27;20489;-77
2023/08/10 21:11:13;;;;;;;4.47;2.60;;;;;;;;;;10557985;28;20099;-76
2023/08/10 21:16:18;;;;;;;;;;;;;;;;;;10555947;28;20044;-77
2023/08/10 21:21:23;;;;;;;7.15;3.45;;;;;;;;;;10532546;28;19945;-77
2023/08/10 21:26:31;;;;;;;6.53;3.42;;;;;;;;;;10542743;28;20050;-77
2023/08/10 21:31:47;;;;;;;9.25;3.40;;;;;;;;;;10526695;28;20058;-77
2023/08/10 21:37:10;;;;;;;9.75;3.88;;;;;;;;;;10549580;28;20048;-76
2023/08/10 21:42:25;;;;;;;4.68;2.40;;;;;;;;;;10551560;28;20035;-76
2023/08/10 21:47:31;;;;;;;4.22;2.45;;;;;;;;;;10564055;28;20502;-76
2023/08/10 21:52:35;;;;;;;5.28;2.10;;;;;;;;;;10554647;27;20066;-76
2023/08/10 21:57:55;;;;;;;4.47;2.35;;;;;;;;;;10579564;27;20047;-77
2023/08/10 22:03:04;;;;;;;6.40;2.50;;;;;;;;;;10567545;27;20040;-77
2023/08/10 22:08:12;;;;;;;5.13;2.58;;;;;;;;;;10567635;27;20295;-77
2023/08/10 22:13:19;;;;;;;6.05;2.83;;;;;;;;;;10564315;27;20042;-77
2023/08/10 22:18:25;;;;;;;5.13;2.92;;;;;;;;;;10564411;27;20040;-77
2023/08/10 22:23:32;;;;;;;4.72;2.22;;;;;;;;;;10565264;27;20418;-77
2023/08/10 22:28:39;;;;;;;5.68;2.47;;;;;;;;;;10562273;27;20097;-77
2023/08/10 22:33:45;;;;;;;6.38;2.90;;;;;;;;;;10566460;27;20120;-76
2023/08/10 22:38:49;;;;;;;5.35;2.55;;;;;;;;;;10563448;27;20119;-76
2023/08/10 22:44:12;;;;;;;5.18;3.20;;;;;;;;;;10564841;27;20048;-76
2023/08/10 22:49:15;;;;;;;4.43;2.70;;;;;;;;;;10542786;27;20513;-76
2023/08/10 22:54:19;;;;;;;6.38;3.05;;;;;;;;;;10571350;27;20046;-76
2023/08/10 22:59:25;;;;;;;;;;;;;;;;;;10576228;27;20046;-76
2023/08/10 23:04:44;;;;;;;5.57;3.05;;;;;;;;;;10570662;27;20443;-77
2023/08/10 23:09:47;;;;;;;5.22;2.55;;;;;;;;;;10540846;28;20059;-77
2023/08/10 23:14:55;;;;;;;6.03;2.95;;;;;;;;;;10547223;27;20056;-77
2023/08/10 23:20:11;;;;;;;4.57;1.33;;;;;;;;;;10554370;27;20131;-76
2023/08/10 23:25:17;;;;;;;5.35;2.47;;;;;;;;;;10555310;27;20039;-76
2023/08/10 23:30:22;;;;;;;5.63;2.75;;;;;;;;;;10567374;27;20066;-76
2023/08/10 23:35:28;;;;;;;7.57;3.10;;;;;;;;;;10555254;27;20068;-76
2023/08/10 23:40:34;;;;;;;5.25;2.50;;;;;;;;;;10550272;27;20399;-76
2023/08/10 23:45:38;;;;;;;5.45;2.80;;;;;;;;;;10556656;27;20043;-76
2023/08/10 23:50:49;;;;;;;4.32;2.60;;;;;;;;;;10556960;27;20573;-76
2023/08/10 23:55:55;;;;;;;5.47;2.83;;;;;;;;;;10561797;27;20082;-76
